Time;durP1;ratioP1;P1;durP2;ratioP2;P2;SDS_P1;SDS_P2;PMS_P1;PMS_P2;Temp;Humidity;BMP_temperature;BMP_pressure;BME280_temperature;BME280_humidity;BME280_pressure;Samples;Min_cycle;Max_cycle;Signal;HPM_P1;HPM_P2
2023/03/08 00:02:13;;;;;;;13.43;6.25;;;;;;;;;;4969181;28;20160;-72
2023/03/08 00:04:59;;;;;;;12.60;6.75;;;;;;;;;;5001752;28;20064;-73
2023/03/08 00:07:44;;;;;;;13.32;6.70;;;;;;;;;;4989778;28;20029;-72
2023/03/08 00:10:30;;;;;;;11.05;6.78;;;;;;;;;;4983003;28;20536;-71
2023/03/08 00:13:15;;;;;;;10.77;6.53;;;;;;;;;;4982364;28;20038;-71
2023/03/08 00:16:01;;;;;;;13.23;8.00;;;;;;;;;;4991085;28;20044;-73
2023/03/08 00:18:46;;;;;;;12.10;6.43;;;;;;;;;;4997738;28;20117;-73
2023/03/08 00:21:31;;;;;;;10.20;5.70;;;;;;;;;;5000933;28;20034;-74
2023/03/08 00:24:18;;;;;;;10.65;5.90;;;;;;;;;;4978008;28;20023;-74
2023/03/08 00:27:03;;;;;;;12.98;6.57;;;;;;;;;;4993584;28;20040;-74
2023/03/08 00:29:49;;;;;;;11.45;5.45;;;;;;;;;;4988660;28;20465;-71
2023/03/08 00:32:34;;;;;;;11.68;5.82;;;;;;;;;;4994982;28;20048;-74
2023/03/08 00:35:19;;;;;;;10.63;5.97;;;;;;;;;;4977748;28;20030;-74
2023/03/08 00:38:04;;;;;;;11.45;6.50;;;;;;;;;;4990444;28;20029;-75
2023/03/08 00:40:49;;;;;;;14.48;6.82;;;;;;;;;;4976192;28;20037;-72
2023/03/08 00:43:35;;;;;;;10.15;5.75;;;;;;;;;;4977839;28;20877;-72
2023/03/08 00:46:20;;;;;;;12.45;6.70;;;;;;;;;;4982751;28;20500;-72
2023/03/08 00:49:05;;;;;;;10.60;6.45;;;;;;;;;;4976106;28;20335;-79
2023/03/08 00:51:51;;;;;;;12.65;6.93;;;;;;;;;;4972367;28;20034;-72
2023/03/08 00:54:36;;;;;;;13.10;7.15;;;;;;;;;;4974986;28;20030;-70
2023/03/08 00:57:21;;;;;;;12.43;7.15;;;;;;;;;;4991186;28;20116;-73
2023/03/08 01:00:10;;;;;;;11.75;7.15;;;;;;;;;;4992553;28;20440;-72
2023/03/08 01:02:55;;;;;;;10.90;6.47;;;;;;;;;;4974603;28;20100;-70
2023/03/08 01:05:41;;;;;;;15.90;7.50;;;;;;;;;;4989579;28;20533;-81
2023/03/08 01:08:27;;;;;;;12.95;7.30;;;;;;;;;;4983024;28;20029;-72
2023/03/08 01:11:20;;;;;;;13.40;7.68;;;;;;;;;;4989405;28;20776;-83
2023/03/08 01:14:07;;;;;;;13.43;6.72;;;;;;;;;;4983769;28;20037;-85
2023/03/08 01:16:52;;;;;;;11.18;6.35;;;;;;;;;;4979162;28;20694;-83
2023/03/08 01:19:38;;;;;;;12.32;6.47;;;;;;;;;;4980774;28;20038;-86
2023/03/08 01:22:23;;;;;;;13.35;7.25;;;;;;;;;;4998729;28;20477;-83
2023/03/08 01:25:08;;;;;;;14.80;6.97;;;;;;;;;;4987345;28;20116;-72
2023/03/08 01:27:53;;;;;;;16.15;7.45;;;;;;;;;;4991221;28;20041;-71
2023/03/08 01:30:39;;;;;;;16.33;7.72;;;;;;;;;;4990217;28;20026;-72
2023/03/08 01:33:24;;;;;;;13.45;7.03;;;;;;;;;;4991961;28;20032;-71
2023/03/08 01:36:12;;;;;;;11.25;6.45;;;;;;;;;;4990517;28;20099;-71
2023/03/08 01:38:59;;;;;;;13.02;7.63;;;;;;;;;;4989060;28;20040;-73
2023/03/08 01:41:44;;;;;;;14.05;8.60;;;;;;;;;;4991371;28;20022;-72
2023/03/08 01:44:47;;;;;;;13.80;7.65;;;;;;;;;;4983170;28;20077;-71
2023/03/08 01:47:34;;;;;;;14.20;7.85;;;;;;;;;;4976466;28;20385;-72
2023/03/08 01:50:20;;;;;;;14.85;7.88;;;;;;;;;;4989963;28;20025;-73
2023/03/08 01:53:05;;;;;;;15.65;7.35;;;;;;;;;;4990202;28;20122;-72
2023/03/08 01:55:51;;;;;;;12.65;6.72;;;;;;;;;;4992299;28;20508;-72
2023/03/08 01:58:38;;;;;;;13.13;6.38;;;;;;;;;;4983415;28;20069;-72
2023/03/08 02:01:23;;;;;;;19.15;8.35;;;;;;;;;;4977064;28;20072;-73
2023/03/08 02:04:09;;;;;;;14.77;7.05;;;;;;;;;;4990095;28;20109;-81
2023/03/08 02:06:54;;;;;;;13.52;7.32;;;;;;;;;;4976110;28;20038;-81
2023/03/08 02:09:39;;;;;;;14.15;7.65;;;;;;;;;;4970660;28;20060;-80
2023/03/08 02:12:25;;;;;;;14.80;8.02;;;;;;;;;;4980178;28;20037;-80
2023/03/08 02:15:12;;;;;;;15.48;6.63;;;;;;;;;;4986262;28;20442;-80
2023/03/08 02:17:58;;;;;;;13.18;7.15;;;;;;;;;;4970644;28;20540;-81
2023/03/08 02:20:43;;;;;;;12.98;7.07;;;;;;;;;;4968412;28;20030;-73
2023/03/08 02:23:28;;;;;;;11.55;6.35;;;;;;;;;;4985842;28;20029;-79
2023/03/08 02:26:13;;;;;;;14.02;7.03;;;;;;;;;;4973081;28;20053;-80
2023/03/08 02:28:59;;;;;;;14.57;7.22;;;;;;;;;;4971373;28;20053;-80
2023/03/08 02:31:44;;;;;;;13.52;7.07;;;;;;;;;;4987057;28;21913;-80
2023/03/08 02:34:29;;;;;;;14.07;7.25;;;;;;;;;;4973161;28;20109;-80
2023/03/08 02:37:14;;;;;;;16.55;8.98;;;;;;;;;;4964249;28;20035;-80
2023/03/08 02:39:59;;;;;;;14.25;7.68;;;;;;;;;;4964872;28;20509;-81
2023/03/08 02:42:45;;;;;;;14.27;7.22;;;;;;;;;;4993671;28;20032;-80
2023/03/08 02:45:30;;;;;;;16.65;7.70;;;;;;;;;;4978931;28;20490;-81
2023/03/08 02:48:16;;;;;;;15.25;7.05;;;;;;;;;;4982056;28;20038;-83
2023/03/08 02:51:02;;;;;;;12.38;6.50;;;;;;;;;;4988510;28;20119;-82
2023/03/08 02:53:47;;;;;;;13.45;7.45;;;;;;;;;;4972773;28;20133;-79
2023/03/08 02:56:32;;;;;;;13.45;7.30;;;;;;;;;;4970524;28;20026;-81
2023/03/08 02:59:17;;;;;;;14.63;6.72;;;;;;;;;;4976287;28;20120;-69
2023/03/08 03:02:02;;;;;;;13.50;6.65;;;;;;;;;;4970679;28;20076;-73
2023/03/08 03:04:48;;;;;;;16.60;7.90;;;;;;;;;;4986504;28;20069;-71
2023/03/08 03:07:37;;;;;;;14.68;6.93;;;;;;;;;;4991326;28;20069;-72
2023/03/08 03:10:22;;;;;;;12.23;6.63;;;;;;;;;;4981984;28;20050;-73
2023/03/08 03:13:08;;;;;;;18.17;7.82;;;;;;;;;;4990688;28;20493;-70
2023/03/08 03:15:53;;;;;;;17.45;7.72;;;;;;;;;;4985661;28;20042;-74
2023/03/08 03:18:38;;;;;;;12.13;6.22;;;;;;;;;;4994436;28;20041;-73
2023/03/08 03:21:23;;;;;;;15.80;7.65;;;;;;;;;;4981638;28;20026;-73
2023/03/08 03:24:09;;;;;;;14.63;6.70;;;;;;;;;;4992389;28;20024;-76
2023/03/08 03:26:54;;;;;;;12.80;6.97;;;;;;;;;;4989824;28;20116;-73
2023/03/08 03:29:39;;;;;;;14.88;6.35;;;;;;;;;;4969416;28;20257;-73
2023/03/08 03:32:24;;;;;;;16.63;6.97;;;;;;;;;;4994070;28;20532;-74
2023/03/08 03:35:10;;;;;;;14.07;6.20;;;;;;;;;;4982763;28;20026;-72
2023/03/08 03:37:55;;;;;;;13.18;6.03;;;;;;;;;;4966332;28;20035;-71
2023/03/08 03:40:40;;;;;;;14.30;6.85;;;;;;;;;;4965849;28;20034;-70
2023/03/08 03:43:25;;;;;;;15.25;7.40;;;;;;;;;;4992825;28;20501;-70
2023/03/08 03:46:12;;;;;;;13.18;7.53;;;;;;;;;;4985013;28;20532;-69
2023/03/08 03:48:57;;;;;;;14.30;7.13;;;;;;;;;;4988895;28;20038;-70
2023/03/08 03:51:42;;;;;;;13.68;6.85;;;;;;;;;;4987177;28;20026;-82
2023/03/08 03:54:28;;;;;;;13.50;7.95;;;;;;;;;;4986060;28;20018;-84
2023/03/08 03:57:13;;;;;;;12.05;5.80;;;;;;;;;;4988978;28;20134;-81
2023/03/08 03:59:59;;;;;;;13.32;6.75;;;;;;;;;;4971388;28;20026;-82
2023/03/08 04:02:44;;;;;;;12.77;6.90;;;;;;;;;;4976667;28;20046;-82
2023/03/08 04:05:29;;;;;;;14.23;7.38;;;;;;;;;;4967267;28;20030;-82
2023/03/08 04:08:14;;;;;;;16.52;7.38;;;;;;;;;;4987569;28;20044;-84
2023/03/08 04:11:00;;;;;;;14.85;6.82;;;;;;;;;;4970153;28;20037;-82
2023/03/08 04:13:45;;;;;;;13.27;7.57;;;;;;;;;;4973892;28;20030;-74
2023/03/08 04:16:32;;;;;;;13.98;7.07;;;;;;;;;;4971308;28;20085;-74
2023/03/08 04:19:17;;;;;;;13.35;7.13;;;;;;;;;;4986642;28;20088;-72
2023/03/08 04:22:02;;;;;;;11.82;6.15;;;;;;;;;;4995643;28;20037;-72
2023/03/08 04:24:47;;;;;;;12.48;6.25;;;;;;;;;;4983635;28;20489;-73
2023/03/08 04:27:32;;;;;;;13.65;6.25;;;;;;;;;;4989488;28;20240;-71
2023/03/08 04:30:18;;;;;;;12.57;6.40;;;;;;;;;;4991582;28;20089;-71
2023/03/08 04:33:03;;;;;;;14.65;6.10;;;;;;;;;;4982507;28;20527;-73
2023/03/08 04:35:48;;;;;;;13.20;6.30;;;;;;;;;;4985929;28;20122;-71
2023/03/08 04:38:35;;;;;;;13.00;6.57;;;;;;;;;;4974034;28;20397;-74
2023/03/08 04:41:20;;;;;;;14.88;6.22;;;;;;;;;;4977680;28;20162;-71
2023/03/08 04:44:05;;;;;;;11.18;5.68;;;;;;;;;;4976374;28;20505;-74
2023/03/08 04:46:50;;;;;;;12.63;6.95;;;;;;;;;;4973188;28;20487;-82
2023/03/08 04:49:36;;;;;;;14.80;6.50;;;;;;;;;;4984711;28;20083;-72
2023/03/08 04:52:21;;;;;;;12.02;6.50;;;;;;;;;;4987730;28;20028;-71
2023/03/08 04:55:06;;;;;;;12.55;6.15;;;;;;;;;;4982424;28;20605;-70
2023/03/08 04:57:51;;;;;;;13.02;6.38;;;;;;;;;;4994013;28;20132;-73
2023/03/08 05:00:37;;;;;;;11.70;6.53;;;;;;;;;;4989403;28;20128;-72
2023/03/08 05:03:23;;;;;;;14.27;6.75;;;;;;;;;;4988171;28;20498;-72
2023/03/08 05:06:09;;;;;;;12.32;6.60;;;;;;;;;;4964171;28;20120;-73
2023/03/08 05:08:54;;;;;;;12.00;6.45;;;;;;;;;;4975496;28;20389;-70
2023/03/08 05:11:39;;;;;;;12.70;6.90;;;;;;;;;;4987888;28;20061;-70
2023/03/08 05:14:25;;;;;;;12.00;6.95;;;;;;;;;;4988754;28;20417;-71
2023/03/08 05:17:10;;;;;;;12.77;7.38;;;;;;;;;;4990023;28;20034;-71
2023/03/08 05:19:55;;;;;;;13.23;5.95;;;;;;;;;;4991071;28;20783;-72
2023/03/08 05:22:40;;;;;;;15.80;6.90;;;;;;;;;;4995708;28;20034;-74
2023/03/08 05:25:26;;;;;;;15.13;6.53;;;;;;;;;;5008773;28;20026;-71
2023/03/08 05:28:14;;;;;;;13.95;7.32;;;;;;;;;;4990844;28;20037;-73
2023/03/08 05:31:04;;;;;;;13.23;6.63;;;;;;;;;;4982103;28;20060;-73
2023/03/08 05:33:50;;;;;;;15.25;8.25;;;;;;;;;;5000693;28;20084;-80
2023/03/08 05:36:35;;;;;;;14.52;7.88;;;;;;;;;;4987392;28;20045;-74
2023/03/08 05:39:20;;;;;;;12.20;6.10;;;;;;;;;;4993091;28;20033;-74
2023/03/08 05:42:05;;;;;;;14.82;7.88;;;;;;;;;;4991082;28;20481;-81
2023/03/08 05:44:51;;;;;;;13.65;8.25;;;;;;;;;;4986489;28;20025;-74
2023/03/08 05:47:36;;;;;;;14.57;7.38;;;;;;;;;;4991043;28;20029;-72
2023/03/08 05:50:21;;;;;;;12.70;6.65;;;;;;;;;;4990753;28;20123;-71
2023/03/08 05:53:06;;;;;;;15.15;7.75;;;;;;;;;;4974655;28;20036;-71
2023/03/08 05:55:54;;;;;;;13.68;7.05;;;;;;;;;;4983110;28;20227;-71
2023/03/08 05:58:39;;;;;;;16.60;7.65;;;;;;;;;;4980090;28;20065;-72
2023/03/08 06:01:25;;;;;;;15.38;8.02;;;;;;;;;;4974114;28;20066;-71
2023/03/08 06:04:11;;;;;;;13.40;7.10;;;;;;;;;;4977886;28;20042;-72
2023/03/08 06:06:56;;;;;;;18.67;9.20;;;;;;;;;;4985483;28;20046;-73
2023/03/08 06:09:41;;;;;;;12.63;7.20;;;;;;;;;;4991442;28;20040;-74
2023/03/08 06:12:26;;;;;;;17.45;7.72;;;;;;;;;;4995680;28;20392;-72
2023/03/08 06:15:12;;;;;;;15.18;8.23;;;;;;;;;;5000876;28;20034;-73
2023/03/08 06:17:57;;;;;;;14.77;7.93;;;;;;;;;;4991842;28;20465;-73
2023/03/08 06:20:42;;;;;;;14.93;7.25;;;;;;;;;;4992254;28;20022;-71
2023/03/08 06:23:28;;;;;;;16.20;8.20;;;;;;;;;;4974329;28;20992;-69
2023/03/08 06:26:14;;;;;;;15.52;7.93;;;;;;;;;;4992433;28;20068;-70
2023/03/08 06:28:59;;;;;;;15.13;7.45;;;;;;;;;;5003951;28;20195;-69
2023/03/08 06:31:44;;;;;;;13.68;7.05;;;;;;;;;;4990993;28;20030;-68
2023/03/08 06:34:30;;;;;;;14.40;8.00;;;;;;;;;;4994161;28;20021;-72
2023/03/08 06:37:16;;;;;;;28.90;9.50;;;;;;;;;;4988909;28;20021;-72
2023/03/08 06:40:02;;;;;;;15.25;8.35;;;;;;;;;;4991774;28;20068;-73
2023/03/08 06:42:48;;;;;;;15.10;8.07;;;;;;;;;;4976064;28;20469;-72
2023/03/08 06:45:36;;;;;;;11.90;7.10;;;;;;;;;;4991341;28;20083;-75
2023/03/08 06:48:21;;;;;;;14.45;8.68;;;;;;;;;;5000501;28;20034;-74
2023/03/08 06:51:06;;;;;;;13.52;7.22;;;;;;;;;;4999026;28;20045;-73
2023/03/08 06:53:52;;;;;;;16.33;8.40;;;;;;;;;;4979864;28;20310;-74
2023/03/08 06:56:37;;;;;;;17.98;9.07;;;;;;;;;;4988750;28;20076;-74
2023/03/08 06:59:22;;;;;;;19.48;8.60;;;;;;;;;;4988849;28;20551;-71
2023/03/08 07:02:08;;;;;;;15.77;9.73;;;;;;;;;;4976012;28;20037;-71
2023/03/08 07:04:53;;;;;;;14.35;8.05;;;;;;;;;;4983820;28;20026;-69
2023/03/08 07:07:39;;;;;;;14.85;8.60;;;;;;;;;;4981546;28;20025;-70
2023/03/08 07:10:24;;;;;;;16.02;8.48;;;;;;;;;;4983498;28;20061;-71
2023/03/08 07:13:09;;;;;;;17.38;9.93;;;;;;;;;;4995492;28;20450;-77
2023/03/08 07:15:55;;;;;;;16.08;8.63;;;;;;;;;;4987396;28;20129;-71
2023/03/08 07:18:40;;;;;;;16.70;9.10;;;;;;;;;;4997470;28;20029;-73
2023/03/08 07:21:25;;;;;;;16.25;8.18;;;;;;;;;;4973661;28;20088;-76
2023/03/08 07:24:11;;;;;;;16.38;9.13;;;;;;;;;;4971332;28;20396;-74
2023/03/08 07:26:56;;;;;;;18.50;8.70;;;;;;;;;;4980091;28;20038;-75
2023/03/08 07:29:41;;;;;;;17.88;9.88;;;;;;;;;;4980095;28;20038;-73
2023/03/08 07:32:27;;;;;;;19.85;9.85;;;;;;;;;;4978113;28;20268;-74
2023/03/08 07:35:13;;;;;;;17.35;9.18;;;;;;;;;;4992040;28;20057;-72
2023/03/08 07:37:59;;;;;;;17.38;10.20;;;;;;;;;;4975343;28;20092;-73
2023/03/08 07:40:44;;;;;;;15.63;8.35;;;;;;;;;;4988770;28;20033;-74
2023/03/08 07:43:29;;;;;;;15.85;9.57;;;;;;;;;;4977937;28;20096;-74
2023/03/08 07:46:14;;;;;;;19.70;11.07;;;;;;;;;;4986700;28;20050;-73
2023/03/08 07:48:59;;;;;;;19.95;9.80;;;;;;;;;;4981141;28;20481;-72
2023/03/08 07:51:45;;;;;;;18.40;9.68;;;;;;;;;;4990077;28;20032;-76
2023/03/08 07:54:30;;;;;;;17.13;10.50;;;;;;;;;;4989749;28;20053;-70
2023/03/08 07:57:15;;;;;;;19.42;10.20;;;;;;;;;;4990205;28;20153;-70
2023/03/08 08:00:00;;;;;;;15.93;9.48;;;;;;;;;;4986793;28;20036;-69
2023/03/08 08:02:46;;;;;;;18.85;9.15;;;;;;;;;;4981594;28;20029;-68
2023/03/08 08:05:33;;;;;;;14.82;8.75;;;;;;;;;;4998247;28;20105;-70
2023/03/08 08:08:19;;;;;;;13.80;8.07;;;;;;;;;;4986825;28;20030;-70
2023/03/08 08:11:11;;;;;;;14.48;8.73;;;;;;;;;;4973492;28;20037;-73
2023/03/08 08:13:56;;;;;;;15.98;8.35;;;;;;;;;;4996249;28;20037;-77
2023/03/08 08:16:41;;;;;;;13.85;8.27;;;;;;;;;;4980747;28;20041;-78
2023/03/08 08:19:27;;;;;;;13.05;7.82;;;;;;;;;;4979046;28;20039;-77
2023/03/08 08:22:12;;;;;;;13.02;7.90;;;;;;;;;;4979496;28;20036;-78
2023/03/08 08:24:58;;;;;;;15.57;8.35;;;;;;;;;;4984477;28;20113;-77
2023/03/08 08:27:43;;;;;;;16.63;7.85;;;;;;;;;;4979745;28;20476;-74
2023/03/08 08:30:28;;;;;;;15.43;7.70;;;;;;;;;;4997913;28;20077;-79
2023/03/08 08:33:13;;;;;;;16.65;8.40;;;;;;;;;;4996930;28;20041;-77
2023/03/08 08:35:59;;;;;;;12.48;7.75;;;;;;;;;;4982048;28;20038;-77
2023/03/08 08:38:47;;;;;;;13.85;7.40;;;;;;;;;;4983682;28;20113;-75
2023/03/08 08:41:32;;;;;;;16.73;8.35;;;;;;;;;;5005923;28;20076;-75
2023/03/08 08:44:18;;;;;;;18.40;9.27;;;;;;;;;;4990090;28;20043;-76
2023/03/08 08:47:03;;;;;;;15.07;7.50;;;;;;;;;;4998593;28;20107;-76
2023/03/08 08:49:48;;;;;;;16.15;7.68;;;;;;;;;;4990019;28;20030;-76
2023/03/08 08:52:33;;;;;;;12.65;7.40;;;;;;;;;;4990705;28;20520;-77
2023/03/08 08:55:19;;;;;;;15.80;8.73;;;;;;;;;;4993820;28;20125;-78
2023/03/08 08:58:04;;;;;;;15.63;8.15;;;;;;;;;;4986659;28;20066;-77
2023/03/08 09:00:50;;;;;;;17.40;8.38;;;;;;;;;;4974333;28;20022;-77
2023/03/08 09:03:35;;;;;;;16.83;7.97;;;;;;;;;;4977872;28;20022;-73
2023/03/08 09:06:21;;;;;;;15.18;8.15;;;;;;;;;;4997552;28;20025;-76
2023/03/08 09:09:07;;;;;;;12.73;7.60;;;;;;;;;;5017070;28;20144;-72
2023/03/08 09:11:52;;;;;;;17.00;8.68;;;;;;;;;;4981895;28;20054;-73
2023/03/08 09:14:38;;;;;;;14.82;7.93;;;;;;;;;;4996388;28;20068;-72
2023/03/08 09:17:23;;;;;;;15.00;7.80;;;;;;;;;;4994955;28;20033;-71
2023/03/08 09:20:08;;;;;;;14.68;9.18;;;;;;;;;;4986298;28;20156;-71
2023/03/08 09:22:54;;;;;;;13.88;8.20;;;;;;;;;;5005748;28;20412;-75
2023/03/08 09:25:39;;;;;;;16.13;9.10;;;;;;;;;;4976772;28;20038;-73
2023/03/08 09:28:24;;;;;;;16.00;9.15;;;;;;;;;;4996935;28;20041;-74
2023/03/08 09:31:13;;;;;;;18.08;9.82;;;;;;;;;;4994666;28;20101;-75
2023/03/08 09:33:59;;;;;;;16.07;9.67;;;;;;;;;;4989482;28;20044;-74
2023/03/08 09:36:44;;;;;;;15.15;8.65;;;;;;;;;;4996234;28;20309;-74
2023/03/08 09:39:29;;;;;;;19.08;9.98;;;;;;;;;;4998774;28;20049;-74
2023/03/08 09:42:19;;;;;;;18.13;9.68;;;;;;;;;;5005722;28;20037;-73
2023/03/08 09:45:04;;;;;;;;;;;;;;;;;;4999850;28;20117;-77
2023/03/08 09:48:03;;;;;;;19.33;9.50;;;;;;;;;;4996520;28;19917;-77
2023/03/08 09:50:50;;;;;;;15.70;8.68;;;;;;;;;;4987662;28;20034;-79
2023/03/08 09:53:35;;;;;;;15.05;9.15;;;;;;;;;;4988371;28;20069;-78
2023/03/08 09:56:28;;;;;;;15.65;8.75;;;;;;;;;;4987974;28;20535;-79
2023/03/08 09:59:17;;;;;;;15.93;10.18;;;;;;;;;;4991666;28;20041;-77
2023/03/08 10:02:13;;;;;;;14.68;8.82;;;;;;;;;;4970032;28;20065;-73
2023/03/08 10:04:58;;;;;;;19.08;7.45;;;;;;;;;;4980877;28;20075;-77
2023/03/08 10:07:52;;;;;;;14.90;8.07;;;;;;;;;;4995926;28;20516;-77
2023/03/08 10:10:47;;;;;;;14.52;7.72;;;;;;;;;;4984131;28;20034;-76
2023/03/08 10:13:34;;;;;;;14.95;6.95;;;;;;;;;;5001916;28;20018;-77
2023/03/08 10:16:21;;;;;;;11.75;7.00;;;;;;;;;;4987883;28;20084;-77
2023/03/08 10:19:12;;;;;;;13.88;7.00;;;;;;;;;;4982713;28;20033;-76
2023/03/08 10:21:58;;;;;;;13.50;6.38;;;;;;;;;;4986038;28;20077;-75
2023/03/08 10:25:05;;;;;;;12.02;5.97;;;;;;;;;;4979982;28;20416;-72
2023/03/08 10:27:53;;;;;;;9.73;5.30;;;;;;;;;;4991718;28;20056;-73
2023/03/08 10:30:48;;;;;;;10.07;5.53;;;;;;;;;;4996007;28;20112;-73
2023/03/08 10:33:34;;;;;;;10.43;5.03;;;;;;;;;;4995737;28;20120;-74
2023/03/08 10:36:21;;;;;;;9.75;4.97;;;;;;;;;;5000235;28;20117;-75
2023/03/08 10:39:08;;;;;;;13.30;5.65;;;;;;;;;;4976064;28;20038;-75
2023/03/08 10:41:55;;;;;;;8.48;5.32;;;;;;;;;;4985133;28;20021;-74
2023/03/08 10:44:43;;;;;;;8.57;4.47;;;;;;;;;;5002634;28;20040;-75
2023/03/08 10:47:30;;;;;;;9.57;4.90;;;;;;;;;;4999576;28;20029;-76
2023/03/08 10:50:20;;;;;;;7.55;4.30;;;;;;;;;;4980063;28;20045;-75
2023/03/08 10:53:17;;;;;;;6.28;3.72;;;;;;;;;;4995456;28;20444;-75
2023/03/08 10:56:02;;;;;;;6.63;3.67;;;;;;;;;;4989419;28;20026;-79
2023/03/08 10:58:47;;;;;;;7.22;3.65;;;;;;;;;;4978587;28;20494;-72
2023/03/08 11:01:34;;;;;;;6.78;3.28;;;;;;;;;;4980614;28;20046;-73
2023/03/08 11:04:20;;;;;;;5.55;2.70;;;;;;;;;;4991773;28;20116;-72
2023/03/08 11:07:15;;;;;;;4.82;2.75;;;;;;;;;;4995338;28;20092;-71
2023/03/08 11:10:14;;;;;;;6.82;2.75;;;;;;;;;;4995442;28;20432;-72
2023/03/08 11:13:17;;;;;;;4.45;2.35;;;;;;;;;;4984151;28;20022;-76
2023/03/08 11:16:25;;;;;;;2.42;1.70;;;;;;;;;;4998827;28;20105;-74
2023/03/08 11:19:18;;;;;;;2.58;1.33;;;;;;;;;;4987586;28;20220;-75
2023/03/08 11:22:06;;;;;;;4.45;1.52;;;;;;;;;;4975611;28;20061;-73
2023/03/08 11:25:04;;;;;;;3.90;1.30;;;;;;;;;;4993655;28;20554;-74
2023/03/08 11:27:56;;;;;;;4.03;1.83;;;;;;;;;;4973965;28;20030;-73
2023/03/08 11:30:51;;;;;;;1.35;1.10;;;;;;;;;;4993747;28;20052;-73
2023/03/08 11:33:36;;;;;;;1.80;1.20;;;;;;;;;;4992162;28;20040;-73
2023/03/08 11:36:37;;;;;;;2.55;1.13;;;;;;;;;;4976542;28;20026;-74
2023/03/08 11:39:31;;;;;;;1.77;1.00;;;;;;;;;;4975279;28;20533;-73
2023/03/08 11:42:24;;;;;;;6.40;2.70;;;;;;;;;;4978985;28;20030;-73
2023/03/08 11:45:17;;;;;;;2.10;1.45;;;;;;;;;;4997773;28;20029;-75
2023/03/08 11:48:26;;;;;;;3.47;1.40;;;;;;;;;;4978264;28;20064;-74
2023/03/08 11:51:16;;;;;;;2.67;1.60;;;;;;;;;;4988425;28;20042;-63
2023/03/08 11:54:14;;;;;;;1.77;1.38;;;;;;;;;;4988532;28;20561;-71
2023/03/08 11:57:00;;;;;;;2.75;1.30;;;;;;;;;;4988398;28;20040;-70
2023/03/08 11:59:49;;;;;;;1.80;1.15;;;;;;;;;;4991276;28;20141;-71
2023/03/08 12:02:37;;;;;;;3.22;1.10;;;;;;;;;;4987670;28;20538;-72
2023/03/08 12:05:22;;;;;;;2.47;1.20;;;;;;;;;;4994696;28;20037;-74
2023/03/08 12:08:20;;;;;;;1.38;0.90;;;;;;;;;;4993577;28;20021;-76
2023/03/08 12:11:09;;;;;;;2.65;1.30;;;;;;;;;;4984678;28;20376;-77
2023/03/08 12:13:57;;;;;;;3.03;0.98;;;;;;;;;;4992010;28;20117;-77
2023/03/08 12:16:51;;;;;;;2.50;1.63;;;;;;;;;;4986792;28;20476;-78
2023/03/08 12:19:46;;;;;;;1.85;0.90;;;;;;;;;;4985711;28;20057;-77
2023/03/08 12:22:38;;;;;;;3.15;1.15;;;;;;;;;;4992681;28;20033;-78
2023/03/08 12:25:27;;;;;;;4.60;1.38;;;;;;;;;;4995073;28;20435;-78
2023/03/08 12:28:12;;;;;;;;;;;;;;;;;;4997847;28;20040;-73
2023/03/08 12:31:18;;;;;;;2.35;1.20;;;;;;;;;;4998144;28;20276;-77
2023/03/08 12:34:11;;;;;;;1.30;1.00;;;;;;;;;;4981517;28;20535;-76
2023/03/08 12:36:56;;;;;;;2.33;1.15;;;;;;;;;;4982927;28;20113;-77
2023/03/08 12:39:41;;;;;;;2.10;1.10;;;;;;;;;;4998704;28;20610;-77
2023/03/08 12:42:32;;;;;;;1.10;1.00;;;;;;;;;;4990219;28;20026;-77
2023/03/08 12:45:22;;;;;;;2.33;1.30;;;;;;;;;;4982992;28;20042;-72
2023/03/08 12:48:22;;;;;;;2.10;1.05;;;;;;;;;;4992937;28;20124;-78
2023/03/08 12:51:11;;;;;;;2.15;0.98;;;;;;;;;;4975394;28;20038;-79
2023/03/08 12:53:58;;;;;;;1.77;1.10;;;;;;;;;;4988060;28;20025;-77
2023/03/08 12:56:50;;;;;;;2.35;1.10;;;;;;;;;;4973372;28;20116;-78
2023/03/08 12:59:37;;;;;;;1.52;1.00;;;;;;;;;;4976047;28;20058;-76
2023/03/08 13:02:30;;;;;;;8.13;0.93;;;;;;;;;;4994093;28;20033;-80
2023/03/08 13:05:28;;;;;;;8.43;1.52;;;;;;;;;;4994005;28;20038;-76
2023/03/08 13:08:13;;;;;;;2.72;0.80;;;;;;;;;;4999038;28;20036;-76
2023/03/08 13:11:04;;;;;;;2.85;1.52;;;;;;;;;;4982103;28;20513;-75
2023/03/08 13:13:57;;;;;;;1.10;0.90;;;;;;;;;;4979073;28;20066;-76
2023/03/08 13:16:42;;;;;;;3.10;0.93;;;;;;;;;;4992651;28;20026;-77
2023/03/08 13:19:30;;;;;;;4.78;1.05;;;;;;;;;;4974735;28;20034;-76
2023/03/08 13:22:20;;;;;;;3.22;0.90;;;;;;;;;;4972518;28;20251;-77
2023/03/08 13:25:26;;;;;;;2.72;0.98;;;;;;;;;;4983747;28;20034;-76
2023/03/08 13:28:16;;;;;;;0.98;0.73;;;;;;;;;;4985295;28;20103;-76
2023/03/08 13:31:01;;;;;;;;;;;;;;;;;;4988309;28;20029;-75
2023/03/08 13:33:48;;;;;;;2.28;1.15;;;;;;;;;;4966518;28;19913;-75
2023/03/08 13:36:34;;;;;;;0.88;0.77;;;;;;;;;;4976984;28;20034;-77
2023/03/08 13:39:20;;;;;;;3.53;0.90;;;;;;;;;;4993670;28;20034;-75
2023/03/08 13:42:10;;;;;;;3.53;0.98;;;;;;;;;;4982127;28;20025;-77
2023/03/08 13:45:09;;;;;;;1.00;0.90;;;;;;;;;;4982808;28;20033;-72
2023/03/08 13:47:56;;;;;;;1.63;1.02;;;;;;;;;;5006893;28;20038;-73
2023/03/08 13:50:42;;;;;;;3.22;0.82;;;;;;;;;;4989479;28;20109;-73
2023/03/08 13:53:29;;;;;;;1.92;0.88;;;;;;;;;;4987286;28;20053;-72
2023/03/08 13:56:22;;;;;;;2.90;0.95;;;;;;;;;;4980510;28;20026;-72
2023/03/08 13:59:18;;;;;;;1.65;0.93;;;;;;;;;;4994480;28;20053;-72
2023/03/08 14:02:15;;;;;;;1.58;0.88;;;;;;;;;;4974955;28;20030;-77
2023/03/08 14:05:01;;;;;;;1.83;1.00;;;;;;;;;;4975235;28;20070;-76
2023/03/08 14:07:54;;;;;;;1.50;1.10;;;;;;;;;;4966474;28;20250;-75
2023/03/08 14:10:43;;;;;;;1.70;0.80;;;;;;;;;;4990030;28;20544;-76
2023/03/08 14:13:30;;;;;;;2.17;0.80;;;;;;;;;;4990789;28;21438;-76
2023/03/08 14:16:27;;;;;;;2.25;0.90;;;;;;;;;;4979750;28;20480;-75
2023/03/08 14:19:23;;;;;;;0.70;0.70;;;;;;;;;;4976381;28;20030;-77
2023/03/08 14:22:14;;;;;;;0.85;0.70;;;;;;;;;;4987744;28;20083;-74
2023/03/08 14:25:03;;;;;;;1.98;0.70;;;;;;;;;;4976503;28;20033;-76
2023/03/08 14:27:49;;;;;;;;;;;;;;;;;;4973981;28;20372;-76
2023/03/08 14:30:34;;;;;;;2.97;0.93;;;;;;;;;;4981463;28;19921;-75
2023/03/08 14:33:19;;;;;;;2.20;0.80;;;;;;;;;;4977417;28;20038;-75
2023/03/08 14:36:05;;;;;;;1.20;0.80;;;;;;;;;;4976192;28;20022;-73
2023/03/08 14:38:50;;;;;;;1.42;0.73;;;;;;;;;;4989601;28;20100;-74
2023/03/08 14:41:36;;;;;;;2.90;0.70;;;;;;;;;;4978714;28;20025;-75
2023/03/08 14:44:23;;;;;;;0.50;0.50;;;;;;;;;;4972246;28;20973;-73
2023/03/08 14:47:20;;;;;;;1.95;0.50;;;;;;;;;;4990201;28;20034;-75
2023/03/08 14:50:05;;;;;;;2.08;0.70;;;;;;;;;;4979115;28;20068;-74
2023/03/08 14:52:52;;;;;;;0.88;0.80;;;;;;;;;;4992517;28;20025;-74
2023/03/08 14:55:40;;;;;;;1.00;0.60;;;;;;;;;;4974343;28;20037;-71
2023/03/08 14:58:27;;;;;;;1.55;0.60;;;;;;;;;;4990721;28;20059;-76
2023/03/08 15:01:21;;;;;;;0.95;0.60;;;;;;;;;;4997101;28;20113;-78
2023/03/08 15:04:18;;;;;;;2.58;0.90;;;;;;;;;;4976474;28;20040;-80
2023/03/08 15:07:03;;;;;;;0.65;0.65;;;;;;;;;;4986209;28;20087;-80
2023/03/08 15:09:50;;;;;;;2.58;0.82;;;;;;;;;;4984495;28;21522;-80
2023/03/08 15:12:35;;;;;;;4.13;2.80;;;;;;;;;;4990315;28;20037;-75
2023/03/08 15:15:20;;;;;;;1.55;0.70;;;;;;;;;;4977284;28;20107;-76
2023/03/08 15:18:05;;;;;;;0.93;0.80;;;;;;;;;;4973972;28;20053;-76
2023/03/08 15:20:51;;;;;;;2.63;1.00;;;;;;;;;;4972188;28;20083;-80
2023/03/08 15:23:36;;;;;;;1.30;0.77;;;;;;;;;;4987153;28;20038;-73
2023/03/08 15:26:23;;;;;;;2.53;0.80;;;;;;;;;;4974253;28;20088;-76
2023/03/08 15:29:27;;;;;;;1.50;0.80;;;;;;;;;;4973770;28;20065;-75
2023/03/08 15:32:12;;;;;;;0.80;0.77;;;;;;;;;;4995536;28;20305;-77
2023/03/08 15:34:57;;;;;;;3.15;0.88;;;;;;;;;;4977608;28;20041;-73
2023/03/08 15:37:43;;;;;;;1.52;0.90;;;;;;;;;;4976867;28;20032;-72
2023/03/08 15:40:29;;;;;;;1.48;1.00;;;;;;;;;;4986710;28;20691;-71
2023/03/08 15:43:14;;;;;;;0.75;0.68;;;;;;;;;;4973752;28;20129;-72
2023/03/08 15:46:00;;;;;;;1.05;0.80;;;;;;;;;;4986490;28;20030;-70
2023/03/08 15:48:45;;;;;;;1.63;0.80;;;;;;;;;;4993286;28;20144;-77
2023/03/08 15:51:32;;;;;;;0.60;0.57;;;;;;;;;;4989687;28;20029;-75
2023/03/08 15:54:17;;;;;;;1.35;0.60;;;;;;;;;;4986569;28;20033;-74
2023/03/08 15:57:02;;;;;;;1.10;0.80;;;;;;;;;;4976273;28;20583;-77
2023/03/08 15:59:49;;;;;;;0.60;0.60;;;;;;;;;;4987511;28;20038;-73
2023/03/08 16:02:34;;;;;;;1.42;0.90;;;;;;;;;;4982651;28;20034;-77
2023/03/08 16:05:22;;;;;;;1.35;0.70;;;;;;;;;;4993467;28;20041;-76
2023/03/08 16:08:07;;;;;;;1.42;0.70;;;;;;;;;;4983000;28;20512;-72
2023/03/08 16:10:52;;;;;;;1.15;0.70;;;;;;;;;;4995825;28;20080;-74
2023/03/08 16:13:38;;;;;;;0.63;0.60;;;;;;;;;;4993299;28;20069;-72
2023/03/08 16:16:23;;;;;;;1.45;0.80;;;;;;;;;;4992987;28;20030;-73
2023/03/08 16:19:08;;;;;;;1.15;0.88;;;;;;;;;;4989204;28;20109;-73
2023/03/08 16:21:53;;;;;;;1.88;0.90;;;;;;;;;;4993462;28;20029;-72
2023/03/08 16:24:38;;;;;;;0.68;0.63;;;;;;;;;;4994255;28;20426;-73
2023/03/08 16:27:24;;;;;;;1.17;0.90;;;;;;;;;;4973456;28;20105;-82
2023/03/08 16:30:10;;;;;;;1.10;0.80;;;;;;;;;;4981050;28;20054;-75
2023/03/08 16:32:55;;;;;;;1.25;1.00;;;;;;;;;;4979221;28;20113;-73
2023/03/08 16:35:46;;;;;;;3.25;0.90;;;;;;;;;;4985130;28;20492;-73